createdAt,value
2023-03-12T00:00:06.970Z,5.37
2023-03-12T00:02:40.906Z,6.03
2023-03-12T00:05:14.067Z,6.22
2023-03-12T00:07:47.148Z,6.33
2023-03-12T00:12:55.437Z,6.03
2023-03-12T00:15:29.079Z,6.47
2023-03-12T00:20:35.470Z,6.70
2023-03-12T00:23:08.420Z,6.40
2023-03-12T00:25:41.530Z,6.22
2023-03-12T00:28:16.040Z,7.05
2023-03-12T00:30:49.525Z,5.60
2023-03-12T00:33:25.573Z,6.42
2023-03-12T00:36:02.210Z,6.62
2023-03-12T00:38:36.161Z,6.55
2023-03-12T00:41:09.070Z,6.97
2023-03-12T00:43:42.003Z,6.62
2023-03-12T00:46:15.561Z,6.45
2023-03-12T00:48:48.995Z,6.67
2023-03-12T00:51:22.431Z,7.15
2023-03-12T00:53:56.202Z,6.67
2023-03-12T00:56:29.300Z,6.35
2023-03-12T00:59:03.094Z,6.58
2023-03-12T01:01:36.215Z,6.75
2023-03-12T01:04:10.774Z,6.20
2023-03-12T01:06:46.161Z,7.03
2023-03-12T01:09:20.852Z,6.20
2023-03-12T01:11:53.671Z,6.33
2023-03-12T01:14:26.935Z,7.10
2023-03-12T01:16:59.974Z,6.90
2023-03-12T01:19:33.535Z,5.67
2023-03-12T01:22:06.645Z,7.58
2023-03-12T01:24:41.570Z,6.62
2023-03-12T01:27:14.616Z,7.20
2023-03-12T01:29:47.605Z,6.53
2023-03-12T01:32:20.652Z,6.78
2023-03-12T01:34:53.685Z,6.10
2023-03-12T01:37:27.262Z,6.87
2023-03-12T01:40:00.043Z,7.67
2023-03-12T01:42:33.439Z,7.70
2023-03-12T01:45:08.110Z,7.47
2023-03-12T01:47:40.983Z,7.20
2023-03-12T01:50:15.461Z,7.33
2023-03-12T01:52:48.638Z,7.27
2023-03-12T01:55:21.617Z,6.97
2023-03-12T01:57:57.424Z,6.33
2023-03-12T02:00:30.397Z,7.92
2023-03-12T02:03:07.995Z,7.60
2023-03-12T02:06:03.607Z,7.22
2023-03-12T02:08:44.086Z,7.00
2023-03-12T02:11:18.554Z,7.00
2023-03-12T02:13:51.536Z,7.10
2023-03-12T02:16:25.842Z,7.78
2023-03-12T02:18:59.844Z,6.97
2023-03-12T02:21:35.419Z,6.40
2023-03-12T02:24:24.553Z,5.95
2023-03-12T02:26:59.164Z,6.83
2023-03-12T02:29:34.512Z,6.17
2023-03-12T02:32:09.222Z,6.35
2023-03-12T02:37:16.761Z,6.70
2023-03-12T02:40:03.876Z,5.58
2023-03-12T02:42:38.504Z,6.50
2023-03-12T02:45:12.900Z,5.97
2023-03-12T02:47:46.337Z,6.27
2023-03-12T02:50:19.204Z,5.83
2023-03-12T02:52:52.167Z,5.40
2023-03-12T02:55:25.631Z,5.63
2023-03-12T02:57:58.473Z,5.22
2023-03-12T03:00:32.535Z,5.33
2023-03-12T03:03:06.426Z,5.00
2023-03-12T03:05:39.601Z,5.28
2023-03-12T03:08:14.168Z,4.85
2023-03-12T03:10:47.847Z,4.92
2023-03-12T03:13:20.791Z,5.45
2023-03-12T03:15:54.961Z,4.97
2023-03-12T03:18:31.141Z,4.85
2023-03-12T03:23:41.918Z,4.47
2023-03-12T03:26:15.560Z,5.47
2023-03-12T03:28:48.702Z,4.97
2023-03-12T03:31:22.216Z,5.00
2023-03-12T03:33:55.592Z,4.83
2023-03-12T03:36:28.652Z,5.22
2023-03-12T03:39:09.322Z,5.17
2023-03-12T03:41:43.416Z,5.08
2023-03-12T03:44:16.752Z,4.70
2023-03-12T03:46:51.356Z,4.83
2023-03-12T03:49:25.166Z,4.67
2023-03-12T03:51:58.715Z,5.53
2023-03-12T03:54:34.199Z,4.58
2023-03-12T03:57:08.375Z,5.15
2023-03-12T03:59:41.453Z,4.22
2023-03-12T04:02:14.884Z,4.40
2023-03-12T04:04:48.225Z,4.17
2023-03-12T04:07:21.561Z,4.40
2023-03-12T04:09:54.586Z,4.22
2023-03-12T04:12:29.000Z,4.22
2023-03-12T04:15:02.485Z,4.80
2023-03-12T04:17:35.436Z,4.35
2023-03-12T04:20:11.379Z,3.77
2023-03-12T04:22:45.299Z,3.75
2023-03-12T04:25:18.603Z,4.17
2023-03-12T04:27:52.062Z,3.45
2023-03-12T04:30:25.653Z,3.60
2023-03-12T04:32:58.756Z,3.95
2023-03-12T04:35:32.953Z,3.30
2023-03-12T04:38:06.228Z,3.63
2023-03-12T04:40:39.394Z,3.35
2023-03-12T04:43:12.931Z,3.70
2023-03-12T04:45:46.076Z,2.95
2023-03-12T04:48:20.880Z,3.33
2023-03-12T04:50:55.547Z,3.77
2023-03-12T04:53:29.256Z,2.87
2023-03-12T04:56:02.746Z,3.95
2023-03-12T04:58:36.182Z,2.50
2023-03-12T05:01:11.305Z,3.00
2023-03-12T05:03:44.694Z,2.92
2023-03-12T05:06:17.688Z,2.75
2023-03-12T05:08:51.331Z,3.35
2023-03-12T05:11:25.501Z,3.42
2023-03-12T05:13:59.269Z,2.80
2023-03-12T05:16:34.128Z,2.72
2023-03-12T05:19:07.964Z,2.50
2023-03-12T05:21:43.285Z,2.52
2023-03-12T05:24:17.332Z,2.20
2023-03-12T05:26:51.994Z,3.22
2023-03-12T05:29:26.741Z,2.35
2023-03-12T05:32:00.706Z,2.83
2023-03-12T05:37:06.858Z,2.55
2023-03-12T05:39:42.864Z,2.42
2023-03-12T05:42:18.728Z,2.20
2023-03-12T05:44:52.822Z,2.22
2023-03-12T05:47:26.568Z,1.65
2023-03-12T05:49:59.685Z,2.30
2023-03-12T05:52:34.257Z,1.92
2023-03-12T05:55:08.764Z,1.95
2023-03-12T05:57:42.194Z,2.42
2023-03-12T06:00:16.965Z,2.00
2023-03-12T06:02:53.296Z,2.08
2023-03-12T06:05:26.390Z,2.35
2023-03-12T06:08:00.633Z,2.50
2023-03-12T06:10:34.004Z,2.67
2023-03-12T06:13:09.023Z,2.27
2023-03-12T06:15:42.659Z,1.98
2023-03-12T06:20:49.315Z,2.47
2023-03-12T06:23:22.721Z,2.13
2023-03-12T06:25:55.745Z,3.05
2023-03-12T06:28:29.909Z,1.90
2023-03-12T06:31:03.853Z,1.95
2023-03-12T06:33:37.397Z,2.67
2023-03-12T06:36:11.682Z,2.30
2023-03-12T06:38:44.836Z,2.12
2023-03-12T06:41:21.161Z,2.40
2023-03-12T06:43:54.557Z,2.40
2023-03-12T06:46:28.321Z,3.27
2023-03-12T06:49:02.980Z,2.50
2023-03-12T06:51:35.977Z,2.67
2023-03-12T06:54:09.110Z,2.70
2023-03-12T06:56:42.562Z,2.50
2023-03-12T06:59:15.546Z,3.00
2023-03-12T07:01:49.802Z,2.90
2023-03-12T07:04:22.855Z,3.20
2023-03-12T07:06:55.893Z,2.85
2023-03-12T07:09:32.415Z,2.75
2023-03-12T07:12:09.934Z,2.08
2023-03-12T07:14:42.755Z,2.10
2023-03-12T07:17:17.615Z,2.30
2023-03-12T07:19:51.105Z,1.85
2023-03-12T07:22:24.158Z,1.75
2023-03-12T07:24:58.396Z,1.80
2023-03-12T07:27:32.179Z,1.90
2023-03-12T07:30:06.095Z,2.10
2023-03-12T07:32:40.021Z,1.85
2023-03-12T07:35:12.932Z,1.75
2023-03-12T07:37:46.493Z,1.50
2023-03-12T07:40:19.566Z,1.65
2023-03-12T07:42:53.402Z,2.60
2023-03-12T07:45:26.793Z,1.50
2023-03-12T07:48:00.296Z,1.30
2023-03-12T07:50:33.913Z,1.00
2023-03-12T07:53:08.010Z,1.85
2023-03-12T07:55:41.557Z,2.00
2023-03-12T07:58:16.126Z,1.80
2023-03-12T08:00:49.810Z,1.60
2023-03-12T08:03:23.985Z,2.00
2023-03-12T08:06:03.003Z,2.40
2023-03-12T08:08:38.143Z,2.52
2023-03-12T08:11:11.582Z,2.20
2023-03-12T08:13:46.585Z,2.37
2023-03-12T08:18:53.197Z,2.42
2023-03-12T08:21:26.150Z,2.20
2023-03-12T08:23:59.160Z,2.40
2023-03-12T08:26:32.656Z,2.42
2023-03-12T08:29:05.791Z,1.83
2023-03-12T08:31:41.856Z,1.87
2023-03-12T08:34:14.242Z,1.90
2023-03-12T08:36:47.169Z,1.90
2023-03-12T08:39:20.640Z,2.40
2023-03-12T08:41:55.614Z,2.33
2023-03-12T08:47:00.459Z,3.80
2023-03-12T08:49:33.545Z,5.25
2023-03-12T08:52:06.943Z,5.78
2023-03-12T08:54:39.924Z,6.50
2023-03-12T08:57:13.457Z,7.17
2023-03-12T08:59:46.538Z,7.03
2023-03-12T09:02:20.211Z,7.92
2023-03-12T09:04:53.696Z,7.80
2023-03-12T09:07:26.897Z,7.90
2023-03-12T09:10:01.411Z,8.45
2023-03-12T09:12:34.853Z,8.75
2023-03-12T09:15:09.644Z,7.95
2023-03-12T09:17:42.871Z,8.15
2023-03-12T09:20:16.763Z,8.18
2023-03-12T09:22:50.052Z,7.65
2023-03-12T09:25:23.557Z,7.80
2023-03-12T09:27:56.696Z,7.92
2023-03-12T09:30:30.819Z,8.78
2023-03-12T09:33:03.660Z,7.55
2023-03-12T09:35:37.622Z,7.83
2023-03-12T09:38:16.301Z,7.85
2023-03-12T09:40:50.222Z,8.30
2023-03-12T09:43:35.084Z,7.50
2023-03-12T09:46:19.004Z,7.25
2023-03-12T09:48:54.077Z,6.97
2023-03-12T09:51:42.561Z,7.33
2023-03-12T09:54:41.077Z,7.17
2023-03-12T09:57:18.479Z,7.47
2023-03-12T09:59:52.904Z,6.75
2023-03-12T10:05:35.740Z,6.92
2023-03-12T10:08:30.734Z,7.55
2023-03-12T10:11:32.659Z,7.65
2023-03-12T10:14:23.856Z,8.10
2023-03-12T10:17:12.286Z,8.20
2023-03-12T10:20:16.268Z,7.40
2023-03-12T10:22:57.262Z,7.30
2023-03-12T10:25:43.499Z,6.92
2023-03-12T10:28:34.372Z,7.50
2023-03-12T10:31:20.777Z,7.97
2023-03-12T10:34:03.419Z,7.40
2023-03-12T10:36:40.710Z,7.15
2023-03-12T10:39:20.811Z,7.53
2023-03-12T10:41:54.312Z,7.15
2023-03-12T10:44:28.317Z,8.08
2023-03-12T10:47:22.787Z,9.85
2023-03-12T10:49:56.077Z,16.97
2023-03-12T10:52:28.978Z,22.13
2023-03-12T10:55:03.583Z,20.23
2023-03-12T10:57:43.695Z,21.45
2023-03-12T11:00:27.532Z,22.85
2023-03-12T11:03:09.688Z,24.60
2023-03-12T11:05:52.302Z,22.17
2023-03-12T11:08:34.674Z,22.13
2023-03-12T11:11:08.551Z,22.65
2023-03-12T11:13:43.395Z,22.70
2023-03-12T11:16:31.445Z,22.40
2023-03-12T11:19:05.456Z,22.85
2023-03-12T11:21:40.648Z,20.62
2023-03-12T11:24:16.468Z,23.10
2023-03-12T11:27:04.195Z,22.60
2023-03-12T11:29:43.719Z,21.33
2023-03-12T11:32:21.512Z,20.40
2023-03-12T11:34:54.878Z,19.40
2023-03-12T11:37:47.339Z,20.02
2023-03-12T11:40:56.536Z,15.53
2023-03-12T11:44:05.941Z,14.55
2023-03-12T11:47:06.719Z,12.20
2023-03-12T11:49:57.114Z,12.18
2023-03-12T11:53:00.578Z,10.78
2023-03-12T11:55:55.604Z,10.13
2023-03-12T11:58:48.349Z,10.03
2023-03-12T12:01:44.202Z,8.88
2023-03-12T12:04:46.781Z,8.00
2023-03-12T12:07:56.334Z,8.40
2023-03-12T12:11:01.310Z,8.40
2023-03-12T12:14:12.147Z,6.55
2023-03-12T12:16:58.461Z,6.92
2023-03-12T12:19:54.740Z,6.33
2023-03-12T12:22:55.219Z,7.58
2023-03-12T12:25:42.200Z,7.17
2023-03-12T12:28:32.604Z,7.33
2023-03-12T12:31:31.947Z,6.58
2023-03-12T12:34:31.595Z,6.03
2023-03-12T12:37:26.145Z,6.45
2023-03-12T12:40:19.030Z,6.08
2023-03-12T12:43:00.356Z,5.95
2023-03-12T12:45:33.746Z,5.78
2023-03-12T12:48:27.875Z,5.42
2023-03-12T12:51:02.493Z,4.53
2023-03-12T12:53:49.966Z,4.70
2023-03-12T12:56:54.254Z,4.40
2023-03-12T12:59:49.864Z,3.50
2023-03-12T13:02:33.242Z,4.45
2023-03-12T13:05:06.657Z,4.10
2023-03-12T13:07:39.823Z,3.73
2023-03-12T13:10:41.879Z,4.12
2023-03-12T13:13:26.245Z,3.30
2023-03-12T13:16:40.041Z,4.70
2023-03-12T13:19:21.704Z,4.87
2023-03-12T13:22:08.861Z,5.62
2023-03-12T13:24:50.807Z,5.95
2023-03-12T13:27:27.654Z,6.60
2023-03-12T13:30:02.346Z,7.20
2023-03-12T13:32:42.040Z,6.85
2023-03-12T13:35:22.779Z,6.70
2023-03-12T13:38:02.993Z,6.15
2023-03-12T13:41:00.056Z,6.35
2023-03-12T13:43:44.496Z,5.30
2023-03-12T13:46:40.514Z,5.28
2023-03-12T13:49:17.038Z,3.77
2023-03-12T13:52:06.132Z,3.87
2023-03-12T13:54:42.814Z,4.17
2023-03-12T13:57:29.401Z,4.03
2023-03-12T14:00:05.621Z,4.22
2023-03-12T14:02:44.401Z,4.05
2023-03-12T14:05:18.308Z,4.42
2023-03-12T14:08:10.142Z,4.55
2023-03-12T14:11:06.872Z,3.95
2023-03-12T14:14:30.778Z,4.22
2023-03-12T14:17:06.184Z,3.87
2023-03-12T14:19:40.990Z,3.40
2023-03-12T14:22:16.059Z,3.47
2023-03-12T14:24:58.870Z,3.87
2023-03-12T14:27:34.689Z,4.67
2023-03-12T14:30:33.876Z,4.30
2023-03-12T14:33:07.531Z,4.08
2023-03-12T14:38:30.161Z,3.27
2023-03-12T14:41:11.256Z,3.70
2023-03-12T14:43:46.847Z,4.87
2023-03-12T14:46:25.504Z,5.40
2023-03-12T14:48:59.530Z,4.40
2023-03-12T14:51:35.111Z,5.47
2023-03-12T14:54:11.453Z,5.30
2023-03-12T14:56:46.632Z,5.50
2023-03-12T14:59:37.143Z,5.37
2023-03-12T15:02:19.798Z,5.05
2023-03-12T15:04:57.800Z,5.53
2023-03-12T15:07:35.232Z,5.90
2023-03-12T15:10:25.042Z,5.00
2023-03-12T15:13:01.690Z,5.33
2023-03-12T15:15:42.579Z,4.58
2023-03-12T15:18:22.432Z,4.20
2023-03-12T15:20:57.517Z,4.15
2023-03-12T15:23:34.203Z,4.08
2023-03-12T15:26:20.954Z,4.15
2023-03-12T15:29:20.759Z,3.98
2023-03-12T15:31:57.579Z,4.72
2023-03-12T15:34:38.074Z,4.22
2023-03-12T15:37:37.624Z,4.97
2023-03-12T15:40:31.193Z,5.03
2023-03-12T15:43:06.365Z,4.45
2023-03-12T15:45:41.456Z,5.05
2023-03-12T15:48:30.164Z,4.83
2023-03-12T15:51:03.236Z,4.90
2023-03-12T15:53:37.123Z,4.65
2023-03-12T15:56:17.677Z,4.20
2023-03-12T15:59:11.836Z,5.05
2023-03-12T16:01:50.992Z,4.67
2023-03-12T16:04:25.128Z,6.37
2023-03-12T16:06:58.072Z,7.25
2023-03-12T16:09:33.105Z,8.18
2023-03-12T16:12:07.325Z,6.60
2023-03-12T16:14:41.060Z,5.70
2023-03-12T16:17:18.012Z,5.80
2023-03-12T16:19:51.107Z,5.55
2023-03-12T16:22:24.319Z,5.58
2023-03-12T16:24:57.970Z,5.43
2023-03-12T16:27:32.838Z,7.05
2023-03-12T16:30:10.898Z,6.50
2023-03-12T16:32:44.076Z,7.30
2023-03-12T16:35:20.520Z,6.60
2023-03-12T16:37:53.762Z,6.00
2023-03-12T16:40:33.641Z,5.33
2023-03-12T16:43:06.055Z,5.10
2023-03-12T16:45:39.256Z,5.50
2023-03-12T16:48:15.928Z,5.97
2023-03-12T16:50:54.882Z,5.30
2023-03-12T16:53:28.619Z,5.40
2023-03-12T16:56:02.811Z,4.50
2023-03-12T16:58:36.502Z,5.90
2023-03-12T17:01:15.639Z,5.75
2023-03-12T17:03:50.472Z,5.20
2023-03-12T17:06:29.528Z,5.08
2023-03-12T17:09:02.449Z,4.78
2023-03-12T17:11:35.813Z,4.67
2023-03-12T17:14:22.265Z,5.20
2023-03-12T17:16:55.992Z,5.03
2023-03-12T17:19:29.462Z,5.10
2023-03-12T17:22:03.915Z,6.47
2023-03-12T17:24:39.466Z,5.33
2023-03-12T17:29:45.797Z,4.28
2023-03-12T17:32:19.762Z,4.33
2023-03-12T17:35:01.053Z,3.70
2023-03-12T17:37:36.005Z,6.30
2023-03-12T17:40:11.207Z,3.95
2023-03-12T17:42:44.974Z,3.90
2023-03-12T17:45:18.512Z,3.72
2023-03-12T17:47:51.323Z,4.40
2023-03-12T17:50:24.752Z,4.17
2023-03-12T17:52:57.480Z,3.67
2023-03-12T17:55:30.254Z,3.90
2023-03-12T17:58:03.623Z,2.98
2023-03-12T18:00:38.234Z,3.02
2023-03-12T18:05:43.301Z,3.65
2023-03-12T18:08:17.084Z,2.90
2023-03-12T18:10:50.920Z,3.00
2023-03-12T18:13:24.397Z,2.87
2023-03-12T18:15:59.656Z,2.85
2023-03-12T18:18:32.571Z,2.70
2023-03-12T18:21:06.127Z,2.60
2023-03-12T18:23:39.423Z,3.10
2023-03-12T18:26:13.062Z,3.00
2023-03-12T18:28:45.946Z,2.72
2023-03-12T18:31:18.907Z,3.00
2023-03-12T18:33:52.612Z,2.70
2023-03-12T18:36:25.667Z,4.05
2023-03-12T18:38:59.680Z,2.80
2023-03-12T18:41:33.220Z,3.20
2023-03-12T18:44:06.897Z,3.95
2023-03-12T18:46:39.902Z,3.55
2023-03-12T18:49:15.558Z,3.35
2023-03-12T18:51:51.338Z,4.00
2023-03-12T18:54:25.456Z,2.83
2023-03-12T18:56:58.763Z,2.62
2023-03-12T18:59:32.482Z,1.87
2023-03-12T19:02:05.646Z,2.30
2023-03-12T19:04:38.643Z,3.30
2023-03-12T19:07:12.242Z,4.23
2023-03-12T19:09:45.950Z,4.20
2023-03-12T19:12:19.091Z,3.17
2023-03-12T19:14:51.943Z,3.83
2023-03-12T19:17:24.829Z,3.70
2023-03-12T19:19:57.858Z,3.33
2023-03-12T19:22:30.501Z,2.80
2023-03-12T19:25:03.997Z,2.77
2023-03-12T19:27:37.294Z,2.92
2023-03-12T19:30:11.766Z,2.20
2023-03-12T19:32:44.945Z,2.65
2023-03-12T19:35:18.725Z,2.33
2023-03-12T19:37:51.864Z,2.10
2023-03-12T19:40:24.869Z,2.27
2023-03-12T19:42:57.621Z,2.25
2023-03-12T19:45:30.570Z,2.42
2023-03-12T19:48:04.268Z,2.13
2023-03-12T19:50:37.086Z,2.03
2023-03-12T19:53:11.040Z,1.60
2023-03-12T19:55:44.004Z,1.87
2023-03-12T19:58:17.698Z,1.57
2023-03-12T20:00:50.647Z,1.60
2023-03-12T20:03:23.552Z,1.50
2023-03-12T20:05:57.225Z,1.40
2023-03-12T20:08:33.375Z,1.55
2023-03-12T20:11:10.397Z,1.42
2023-03-12T20:13:43.291Z,1.45
2023-03-12T20:16:17.139Z,1.47
2023-03-12T20:18:51.717Z,1.37
2023-03-12T20:24:00.284Z,1.47
2023-03-12T20:26:33.792Z,1.27
2023-03-12T20:29:07.874Z,1.53
2023-03-12T20:31:43.318Z,1.47
2023-03-12T20:34:16.358Z,1.77
2023-03-12T20:36:49.852Z,1.30
2023-03-12T20:39:23.022Z,1.80
2023-03-12T20:41:56.269Z,1.20
2023-03-12T20:44:28.901Z,1.40
2023-03-12T20:47:01.966Z,2.00
2023-03-12T20:49:35.875Z,1.70
2023-03-12T20:52:08.703Z,1.70
2023-03-12T20:54:42.251Z,2.08
2023-03-12T20:57:15.166Z,2.02
2023-03-12T20:59:47.844Z,1.70
2023-03-12T21:02:21.000Z,1.55
2023-03-12T21:04:54.463Z,1.87
2023-03-12T21:07:28.216Z,2.10
2023-03-12T21:10:01.016Z,1.85
2023-03-12T21:12:34.691Z,2.02
2023-03-12T21:17:43.609Z,2.42
2023-03-12T21:20:19.773Z,2.95
2023-03-12T21:22:53.038Z,3.47
2023-03-12T21:25:25.901Z,2.70
2023-03-12T21:28:00.223Z,2.60
2023-03-12T21:30:33.547Z,3.15
2023-03-12T21:33:07.708Z,3.58
2023-03-12T21:35:46.928Z,3.55
2023-03-12T21:38:21.424Z,3.65
2023-03-12T21:40:54.544Z,3.25
2023-03-12T21:43:30.120Z,3.30
2023-03-12T21:46:12.888Z,3.47
2023-03-12T21:48:48.129Z,3.20
2023-03-12T21:51:22.894Z,3.65
2023-03-12T21:53:57.937Z,3.65
2023-03-12T21:56:31.194Z,3.17
2023-03-12T21:59:04.196Z,3.40
2023-03-12T22:01:37.444Z,4.08
2023-03-12T22:04:10.389Z,3.22
2023-03-12T22:06:43.473Z,4.03
2023-03-12T22:09:17.003Z,3.95
2023-03-12T22:11:51.081Z,4.45
2023-03-12T22:14:25.474Z,4.85
2023-03-12T22:16:58.291Z,4.20
2023-03-12T22:19:31.059Z,4.03
2023-03-12T22:22:04.403Z,4.20
2023-03-12T22:24:37.899Z,4.30
2023-03-12T22:27:10.705Z,4.10
2023-03-12T22:29:43.978Z,3.65
2023-03-12T22:32:16.632Z,4.25
2023-03-12T22:34:50.540Z,3.47
2023-03-12T22:37:23.217Z,3.65
2023-03-12T22:39:57.906Z,2.95
2023-03-12T22:42:30.876Z,3.92
2023-03-12T22:45:04.043Z,3.52
2023-03-12T22:47:37.654Z,3.25
2023-03-12T22:50:11.929Z,3.52
2023-03-12T22:52:45.282Z,3.25
2023-03-12T22:55:18.486Z,3.90
2023-03-12T22:57:51.162Z,3.90
2023-03-12T23:00:24.177Z,3.40
2023-03-12T23:02:56.992Z,3.60
2023-03-12T23:05:29.902Z,3.42
2023-03-12T23:08:02.569Z,3.50
2023-03-12T23:10:36.011Z,4.00
2023-03-12T23:13:09.738Z,3.37
2023-03-12T23:15:43.094Z,4.13
2023-03-12T23:18:16.983Z,3.70
2023-03-12T23:20:55.509Z,4.45
2023-03-12T23:23:29.255Z,3.95
2023-03-12T23:26:03.655Z,3.98
2023-03-12T23:28:36.574Z,4.28
2023-03-12T23:31:12.166Z,4.20
2023-03-12T23:33:45.756Z,3.92
2023-03-12T23:36:23.840Z,3.67
2023-03-12T23:38:56.877Z,4.30
2023-03-12T23:41:31.058Z,4.42
2023-03-12T23:44:05.241Z,4.50
2023-03-12T23:46:38.759Z,4.20
2023-03-12T23:49:13.539Z,4.15
2023-03-12T23:51:47.734Z,4.75
2023-03-12T23:54:20.660Z,4.30
2023-03-12T23:56:53.717Z,5.00
2023-03-12T23:59:26.388Z,4.78
